Time;durP1;ratioP1;P1;durP2;ratioP2;P2;SDS_P1;SDS_P2;PMS_P1;PMS_P2;Temp;Humidity;BMP_temperature;BMP_pressure;BME280_temperature;BME280_humidity;BME280_pressure;Samples;Min_cycle;Max_cycle;Signal;HPM_P1;HPM_P2
2022/12/27 00:01:25;;;;;;;4.37;1.87;;;3.80;99.90;;;;;;5025663;28;20600;-56
2022/12/27 00:03:52;;;;;;;8.60;1.70;;;3.80;99.90;;;;;;5020974;28;20204;-44
2022/12/27 00:06:22;;;;;;;4.47;1.10;;;3.80;99.90;;;;;;5023824;28;20255;-43
2022/12/27 00:08:50;;;;;;;8.33;1.90;;;3.80;99.90;;;;;;5024730;28;20283;-45
2022/12/27 00:11:19;;;;;;;3.50;1.40;;;3.80;99.90;;;;;;5027468;28;20206;-53
2022/12/27 00:13:46;;;;;;;7.37;1.60;;;3.80;99.90;;;;;;5018072;28;20296;-46
2022/12/27 00:16:16;;;;;;;7.77;1.37;;;3.80;99.90;;;;;;5025633;28;20203;-51
2022/12/27 00:18:45;;;;;;;7.33;1.67;;;3.80;99.90;;;;;;5022482;28;20964;-47
2022/12/27 00:21:13;;;;;;;5.87;1.50;;;3.80;99.90;;;;;;5025465;28;20286;-47
2022/12/27 00:23:43;;;;;;;5.33;1.87;;;3.80;99.90;;;;;;5029914;28;20215;-45
2022/12/27 00:26:12;;;;;;;7.00;1.70;;;3.80;99.90;;;;;;5040080;28;20215;-43
2022/12/27 00:28:39;;;;;;;6.17;1.90;;;3.80;99.90;;;;;;5015633;28;20246;-48
2022/12/27 00:31:06;;;;;;;8.53;1.70;;;3.80;99.90;;;;;;5033477;28;20204;-43
2022/12/27 00:33:36;;;;;;;6.47;1.50;;;3.80;99.90;;;;;;5023709;28;20223;-59
2022/12/27 00:36:05;;;;;;;5.63;1.20;;;3.80;99.90;;;;;;5046596;28;20195;-49
2022/12/27 00:38:33;;;;;;;8.50;2.07;;;3.80;99.90;;;;;;5043102;28;20207;-56
2022/12/27 00:41:00;;;;;;;9.17;1.50;;;3.80;99.90;;;;;;5026055;28;20250;-48
2022/12/27 00:43:27;;;;;;;5.93;1.60;;;3.80;99.90;;;;;;5017288;28;20207;-58
2022/12/27 00:45:54;;;;;;;5.27;1.40;;;3.70;99.90;;;;;;5034232;28;20216;-49
2022/12/27 00:48:21;;;;;;;3.17;1.37;;;3.70;99.90;;;;;;5036743;28;20206;-56
2022/12/27 00:50:49;;;;;;;5.13;1.33;;;3.70;99.90;;;;;;5033440;28;20294;-49
2022/12/27 00:53:18;;;;;;;6.13;2.03;;;3.70;99.90;;;;;;5039586;28;20207;-53
2022/12/27 00:55:45;;;;;;;5.17;1.53;;;3.80;99.90;;;;;;5042495;28;20207;-45
2022/12/27 00:58:12;;;;;;;6.47;1.37;;;3.70;99.90;;;;;;5029275;28;20538;-52
2022/12/27 01:00:39;;;;;;;6.60;1.67;;;3.80;99.90;;;;;;5032182;28;20269;-48
2022/12/27 01:03:06;;;;;;;4.93;1.40;;;3.80;99.90;;;;;;5026728;28;20227;-46
2022/12/27 01:05:36;;;;;;;5.20;1.43;;;3.80;99.90;;;;;;5023643;28;20686;-58
2022/12/27 01:08:05;;;;;;;3.40;1.60;;;3.70;99.90;;;;;;5026374;28;20600;-45
2022/12/27 01:10:33;;;;;;;5.30;1.83;;;3.80;99.90;;;;;;5023167;28;20218;-56
2022/12/27 01:13:00;;;;;;;10.97;1.67;;;3.80;99.90;;;;;;5025566;28;20195;-50
2022/12/27 01:15:28;;;;;;;9.13;1.80;;;3.70;99.90;;;;;;5017078;28;20226;-54
2022/12/27 01:17:55;;;;;;;5.17;1.37;;;3.70;99.90;;;;;;5041371;28;20195;-43
2022/12/27 01:20:44;;;;;;;8.33;1.63;;;3.70;99.90;;;;;;5035256;28;20215;-44
2022/12/27 01:23:12;;;;;;;3.27;1.13;;;3.70;99.90;;;;;;5029031;28;20204;-43
2022/12/27 01:25:39;;;;;;;11.47;1.53;;;3.70;99.90;;;;;;5022358;28;20833;-43
2022/12/27 01:28:06;;;;;;;3.67;1.37;;;3.70;99.90;;;;;;5026440;28;20200;-43
2022/12/27 01:30:33;;;;;;;3.90;1.53;;;3.70;99.90;;;;;;5017813;28;20208;-56
2022/12/27 01:33:00;;;;;;;5.20;1.33;;;3.70;99.90;;;;;;5028099;28;20606;-43
2022/12/27 01:35:27;;;;;;;3.83;1.60;;;3.70;99.90;;;;;;5024120;28;20224;-55
2022/12/27 01:37:54;;;;;;;3.93;1.40;;;3.70;99.90;;;;;;5024518;28;20200;-44
2022/12/27 01:40:22;;;;;;;5.23;1.60;;;3.70;99.90;;;;;;5025393;28;20295;-58
2022/12/27 01:42:54;;;;;;;7.57;1.53;;;3.70;99.90;;;;;;5022443;28;20206;-43
2022/12/27 01:45:23;;;;;;;6.47;2.07;;;3.70;99.90;;;;;;5012834;28;20239;-57
2022/12/27 01:48:16;;;;;;;5.30;1.43;;;3.70;99.90;;;;;;5039726;28;20560;-47
2022/12/27 01:50:46;;;;;;;5.30;1.23;;;3.70;99.90;;;;;;5027614;28;20200;-45
2022/12/27 01:53:17;;;;;;;6.40;1.47;;;3.70;99.90;;;;;;5025626;28;20204;-49
2022/12/27 01:55:48;;;;;;;7.50;1.27;;;3.70;99.90;;;;;;5021024;28;20224;-48
2022/12/27 01:58:21;;;;;;;9.80;3.27;;;3.70;99.90;;;;;;5041016;28;20204;-49
2022/12/27 02:00:50;;;;;;;5.77;1.67;;;3.70;99.90;;;;;;5023028;28;20219;-45
2022/12/27 02:03:22;;;;;;;5.70;1.90;;;3.70;99.90;;;;;;5030794;28;20207;-51
2022/12/27 02:05:50;;;;;;;7.33;1.27;;;3.70;99.90;;;;;;5023147;28;20196;-48
2022/12/27 02:08:29;;;;;;;5.27;1.20;;;3.70;99.90;;;;;;5025519;28;20208;-55
2022/12/27 02:10:59;;;;;;;6.07;1.57;;;3.70;99.90;;;;;;5024514;28;20199;-45
2022/12/27 02:13:26;;;;;;;4.20;1.70;;;3.70;99.90;;;;;;5029488;28;20207;-59
2022/12/27 02:15:53;;;;;;;3.40;1.47;;;3.70;99.90;;;;;;5026049;28;20218;-46
2022/12/27 02:18:20;;;;;;;3.67;1.93;;;3.70;99.90;;;;;;5041285;28;20650;-58
2022/12/27 02:21:13;;;;;;;4.73;1.73;;;3.70;99.90;;;;;;5031777;28;20196;-46
2022/12/27 02:24:02;;;;;;;6.47;1.40;;;3.70;99.90;;;;;;5029877;28;20888;-48
2022/12/27 02:26:51;;;;;;;3.97;1.60;;;3.70;99.90;;;;;;5027622;28;20251;-56
2022/12/27 02:29:39;;;;;;;5.53;1.40;;;3.70;99.90;;;;;;5036442;28;20211;-52
2022/12/27 02:32:09;;;;;;;4.70;1.53;;;3.60;99.90;;;;;;5017341;28;20222;-43
2022/12/27 02:34:44;;;;;;;4.73;1.57;;;3.60;99.90;;;;;;5025729;28;20227;-57
2022/12/27 02:37:13;;;;;;;3.87;1.40;;;3.60;99.90;;;;;;5036769;28;20203;-46
2022/12/27 02:39:44;;;;;;;1.63;1.20;;;3.60;99.90;;;;;;5020720;28;20203;-46
2022/12/27 02:53:34;;;;;;;8.37;1.73;;;3.70;99.90;;;;;;5022906;28;20198;-56
2022/12/27 02:59:13;;;;;;;5.80;1.33;;;3.70;99.90;;;;;;5023693;28;20200;-48
2022/12/27 03:04:55;;;;;;;5.03;1.30;;;3.60;99.90;;;;;;5030711;28;20943;-53
2022/12/27 03:07:34;;;;;;;3.17;1.33;;;3.60;99.90;;;;;;5023465;28;20301;-57
2022/12/27 03:15:57;;;;;;;4.80;1.57;;;3.60;99.90;;;;;;5034425;28;20207;-46
2022/12/27 03:18:50;;;;;;;3.73;1.53;;;3.60;99.90;;;;;;5022636;28;20203;-58
2022/12/27 03:26:55;;;;;;;4.97;1.70;;;3.50;99.90;;;;;;5036756;28;20343;-50
2022/12/27 03:35:05;;;;;;;5.10;1.60;;;3.60;99.90;;;;;;5017354;28;20885;-43
2022/12/27 03:40:27;;;;;;;5.37;1.60;;;3.60;99.90;;;;;;5037173;28;20238;-56
2022/12/27 03:43:12;;;;;;;8.67;1.77;;;3.60;99.90;;;;;;5039671;28;20191;-49
2022/12/27 03:49:05;;;;;;;8.07;2.00;;;3.70;99.90;;;;;;5038708;28;20195;-43
2022/12/27 03:51:37;;;;;;;3.60;2.10;;;3.70;99.90;;;;;;5010134;28;20552;-56
2022/12/27 03:54:09;;;;;;;4.73;1.73;;;3.70;99.90;;;;;;5030073;28;20227;-51
2022/12/27 03:56:37;;;;;;;7.10;2.10;;;3.80;99.90;;;;;;5033011;28;20771;-56
2022/12/27 03:59:06;;;;;;;6.10;2.07;;;3.80;99.90;;;;;;5029820;28;20654;-43
2022/12/27 04:01:33;;;;;;;7.70;2.13;;;3.80;99.90;;;;;;5028086;28;20198;-54
2022/12/27 04:04:00;;;;;;;3.97;1.60;;;3.80;99.90;;;;;;5032142;28;20239;-43
2022/12/27 04:06:26;;;;;;;4.80;1.83;;;3.80;99.90;;;;;;5016141;28;20341;-57
2022/12/27 04:36:23;;;;;;;3.57;2.37;;;3.90;99.90;;;;;;5006166;28;20203;-44
2022/12/27 04:38:50;;;;;;;7.80;2.40;;;3.90;99.90;;;;;;5022956;28;20212;-56
2022/12/27 04:55:13;;;;;;;8.70;2.57;;;3.90;99.90;;;;;;5024729;28;20697;-57
2022/12/27 04:57:41;;;;;;;4.60;2.17;;;3.90;99.90;;;;;;5026825;28;20203;-50
2022/12/27 05:02:54;;;;;;;4.73;2.80;;;3.80;99.90;;;;;;5021145;28;20245;-56
2022/12/27 05:05:22;;;;;;;8.43;2.33;;;3.80;99.90;;;;;;5024580;28;20223;-44
2022/12/27 05:16:05;;;;;;;8.77;2.80;;;3.80;99.90;;;;;;5036899;28;20560;-59
2022/12/27 05:18:32;;;;;;;5.90;2.47;;;3.90;99.90;;;;;;5037822;28;20200;-44
2022/12/27 05:21:01;;;;;;;5.60;2.23;;;3.90;99.90;;;;;;5015074;28;20200;-60
2022/12/27 05:26:18;;;;;;;3.90;1.50;;;3.90;99.90;;;;;;5022789;28;20196;-45
2022/12/27 05:28:47;;;;;;;2.47;1.43;;;3.80;99.90;;;;;;5026417;28;20208;-44
2022/12/27 05:31:14;;;;;;;4.23;1.77;;;3.80;99.90;;;;;;5033090;28;20245;-44
2022/12/27 05:33:41;;;;;;;6.53;1.60;;;3.90;99.90;;;;;;5034191;28;20200;-45
2022/12/27 05:36:09;;;;;;;8.07;2.17;;;3.80;99.90;;;;;;5022160;28;20200;-45
2022/12/27 05:38:36;;;;;;;8.70;2.03;;;3.90;99.90;;;;;;5013062;28;20203;-44
2022/12/27 05:41:03;;;;;;;5.73;1.80;;;3.90;99.90;;;;;;5029528;28;20196;-56
2022/12/27 05:43:31;;;;;;;2.20;1.93;;;3.90;99.90;;;;;;5025250;28;20204;-47
2022/12/27 05:46:04;;;;;;;4.57;1.93;;;3.90;99.90;;;;;;5024056;28;20207;-53
2022/12/27 05:48:32;;;;;;;7.77;1.80;;;3.90;99.90;;;;;;5026515;28;20596;-48
2022/12/27 05:50:59;;;;;;;2.20;1.40;;;3.90;99.90;;;;;;5023649;28;20204;-57
2022/12/27 05:53:26;;;;;;;3.57;1.53;;;3.90;99.90;;;;;;5009437;28;20215;-50
2022/12/27 05:55:54;;;;;;;4.93;2.03;;;3.90;99.90;;;;;;5034844;28;20283;-56
2022/12/27 05:58:21;;;;;;;3.70;1.83;;;4.00;99.90;;;;;;5023688;28;20932;-43
2022/12/27 06:00:47;;;;;;;5.47;2.47;;;4.00;99.90;;;;;;5034542;28;20263;-53
2022/12/27 06:03:16;;;;;;;4.33;2.13;;;4.00;99.90;;;;;;5022851;28;20202;-45
2022/12/27 06:05:43;;;;;;;5.50;1.97;;;4.00;99.90;;;;;;5025261;28;20270;-45
2022/12/27 06:08:11;;;;;;;8.20;2.30;;;4.00;99.90;;;;;;5016245;28;20300;-46
2022/12/27 06:10:38;;;;;;;6.70;2.03;;;4.00;99.90;;;;;;5032960;28;20588;-51
2022/12/27 06:13:05;;;;;;;2.90;1.70;;;4.00;99.90;;;;;;5021700;28;20203;-57
2022/12/27 06:15:32;;;;;;;4.90;1.80;;;4.00;99.90;;;;;;5025232;28;20223;-46
2022/12/27 06:18:02;;;;;;;3.77;1.80;;;4.00;99.90;;;;;;5022680;28;20659;-57
2022/12/27 06:20:30;;;;;;;5.37;2.07;;;4.00;99.90;;;;;;5025016;28;20548;-47
2022/12/27 06:22:59;;;;;;;2.00;1.60;;;4.00;99.90;;;;;;5014546;28;20210;-59
2022/12/27 06:25:26;;;;;;;4.27;2.33;;;4.00;99.90;;;;;;5038951;28;20211;-48
2022/12/27 06:27:53;;;;;;;8.83;1.90;;;4.00;99.90;;;;;;5033623;28;20235;-56
2022/12/27 06:30:20;;;;;;;5.43;2.03;;;4.00;99.90;;;;;;5042078;28;20187;-51
2022/12/27 06:32:47;;;;;;;10.40;2.23;;;4.00;99.90;;;;;;5027965;28;20200;-50
2022/12/27 06:35:15;;;;;;;2.90;1.80;;;4.00;99.90;;;;;;5021253;28;20232;-44
2022/12/27 06:37:43;;;;;;;3.33;1.80;;;4.00;99.90;;;;;;5044070;28;20195;-44
2022/12/27 06:40:12;;;;;;;3.57;1.90;;;4.00;99.90;;;;;;5020452;28;20211;-50
2022/12/27 06:42:38;;;;;;;5.10;2.10;;;4.00;99.90;;;;;;5027073;28;20200;-47
2022/12/27 06:45:08;;;;;;;3.67;2.30;;;4.00;99.90;;;;;;5021178;28;20227;-57
2022/12/27 06:47:35;;;;;;;5.47;2.17;;;4.00;99.90;;;;;;5017805;28;20216;-58
2022/12/27 06:50:03;;;;;;;6.80;2.43;;;4.00;99.90;;;;;;5024590;28;20623;-47
2022/12/27 06:52:29;;;;;;;5.17;1.73;;;4.00;99.90;;;;;;5025371;28;20253;-55
2022/12/27 06:55:20;;;;;;;8.00;2.73;;;4.00;99.90;;;;;;5018486;28;20235;-45
2022/12/27 06:57:47;;;;;;;6.30;1.87;;;4.10;99.90;;;;;;5027312;28;20188;-47
2022/12/27 07:00:15;;;;;;;3.20;1.60;;;4.10;99.90;;;;;;5035042;28;20258;-49
2022/12/27 07:02:41;;;;;;;4.37;1.93;;;4.10;99.90;;;;;;5023300;28;20226;-50
2022/12/27 07:05:09;;;;;;;5.17;1.93;;;4.10;99.90;;;;;;5027788;28;20697;-44
2022/12/27 07:07:36;;;;;;;4.13;1.77;;;4.10;99.90;;;;;;5031530;28;20246;-57
2022/12/27 07:10:03;;;;;;;5.10;1.63;;;4.00;99.90;;;;;;5013627;28;20207;-47
2022/12/27 07:12:32;;;;;;;7.63;1.90;;;4.10;99.90;;;;;;5033001;28;20283;-56
2022/12/27 07:14:59;;;;;;;7.63;1.97;;;4.10;99.90;;;;;;5023604;28;20234;-45
2022/12/27 07:17:26;;;;;;;6.73;1.97;;;4.00;99.90;;;;;;5022675;28;20200;-56
2022/12/27 07:19:52;;;;;;;6.40;1.67;;;3.90;99.90;;;;;;5022286;28;20977;-45
2022/12/27 07:22:20;;;;;;;3.40;0.90;;;3.90;99.90;;;;;;5023904;28;20238;-56
2022/12/27 07:24:47;;;;;;;5.07;1.70;;;3.90;99.90;;;;;;5018362;28;20216;-45
2022/12/27 07:27:14;;;;;;;7.33;1.67;;;3.90;99.90;;;;;;5014065;28;20288;-45
2022/12/27 07:29:42;;;;;;;3.90;1.50;;;3.90;99.90;;;;;;5032860;28;20496;-45
2022/12/27 07:32:09;;;;;;;5.63;1.50;;;3.90;99.90;;;;;;5025699;28;20286;-46
2022/12/27 07:34:36;;;;;;;8.87;1.70;;;3.80;99.90;;;;;;5020576;28;20224;-59
2022/12/27 07:37:03;;;;;;;7.40;2.27;;;3.90;99.90;;;;;;5024027;28;20207;-44
2022/12/27 07:39:30;;;;;;;11.07;1.90;;;3.90;99.90;;;;;;5021926;28;20267;-58
2022/12/27 07:41:57;;;;;;;8.90;1.90;;;3.80;99.90;;;;;;5010085;28;20346;-44
2022/12/27 07:44:24;;;;;;;6.63;1.87;;;3.80;99.90;;;;;;5032877;28;20299;-58
2022/12/27 07:46:53;;;;;;;7.10;2.50;;;3.80;99.90;;;;;;5019971;28;20198;-59
2022/12/27 07:49:20;;;;;;;7.90;1.60;;;3.80;99.90;;;;;;5023773;28;20427;-44
2022/12/27 07:51:47;;;;;;;6.23;1.60;;;3.80;99.90;;;;;;5028703;28;20254;-51
2022/12/27 07:54:14;;;;;;;8.77;3.03;;;3.90;99.90;;;;;;5018247;28;20222;-45
2022/12/27 07:56:41;;;;;;;4.30;1.80;;;3.90;99.90;;;;;;5022526;28;20227;-48
2022/12/27 07:59:12;;;;;;;8.60;2.00;;;3.90;99.90;;;;;;5030275;28;20188;-49
2022/12/27 08:02:02;;;;;;;4.33;1.90;;;3.90;99.90;;;;;;5034996;28;20200;-46
2022/12/27 08:04:31;;;;;;;8.60;2.40;;;3.90;99.90;;;;;;5039812;28;20207;-52
2022/12/27 08:07:04;;;;;;;6.57;1.87;;;3.90;99.90;;;;;;5027632;28;20207;-57
2022/12/27 08:09:35;;;;;;;10.23;2.60;;;4.00;99.90;;;;;;5026947;28;20207;-46
2022/12/27 08:12:02;;;;;;;5.37;1.80;;;4.00;99.90;;;;;;5023431;28;20666;-61
2022/12/27 08:14:28;;;;;;;2.07;1.60;;;4.00;99.90;;;;;;5034326;28;20234;-44
2022/12/27 08:16:58;;;;;;;10.83;2.07;;;4.00;99.90;;;;;;5030981;28;20195;-58
2022/12/27 08:19:26;;;;;;;8.17;2.37;;;4.00;99.90;;;;;;5032551;28;20179;-51
2022/12/27 08:21:54;;;;;;;8.87;3.43;;;4.00;99.90;;;;;;5034705;28;20198;-59
2022/12/27 08:24:20;;;;;;;8.60;1.80;;;4.00;99.90;;;;;;5025429;28;20828;-49
2022/12/27 08:26:47;;;;;;;7.97;1.90;;;4.00;99.90;;;;;;5026902;28;20209;-52
2022/12/27 08:29:14;;;;;;;6.90;1.80;;;3.90;99.90;;;;;;5015701;28;20820;-49
2022/12/27 08:31:41;;;;;;;3.90;1.40;;;4.00;99.90;;;;;;5032422;28;20199;-47
2022/12/27 08:34:08;;;;;;;14.80;3.23;;;4.00;99.90;;;;;;5033443;28;20207;-48
2022/12/27 08:36:35;;;;;;;5.80;1.80;;;4.00;99.90;;;;;;5034163;28;20203;-47
2022/12/27 08:39:03;;;;;;;7.00;1.53;;;4.00;99.90;;;;;;5028787;28;20551;-59
2022/12/27 08:41:30;;;;;;;5.43;1.33;;;4.00;99.90;;;;;;5029055;28;20249;-58
2022/12/27 08:43:56;;;;;;;4.47;1.70;;;4.00;99.90;;;;;;5024081;28;22393;-50
2022/12/27 08:46:23;;;;;;;4.23;1.30;;;4.10;99.90;;;;;;5032844;28;20562;-52
2022/12/27 08:48:50;;;;;;;4.07;1.20;;;4.10;99.90;;;;;;5026226;28;20211;-44
2022/12/27 08:51:18;;;;;;;5.70;1.97;;;4.20;99.90;;;;;;5043710;28;20191;-45
2022/12/27 08:53:45;;;;;;;7.30;1.43;;;4.20;99.90;;;;;;5027630;28;20231;-58
2022/12/27 08:56:13;;;;;;;4.93;1.40;;;4.20;99.90;;;;;;5037670;28;20199;-44
2022/12/27 08:58:39;;;;;;;3.23;2.00;;;4.20;99.90;;;;;;5015333;28;20208;-56
2022/12/27 09:01:07;;;;;;;13.17;2.20;;;4.20;99.90;;;;;;5026631;28;20916;-45
2022/12/27 09:03:35;;;;;;;6.67;1.97;;;4.20;99.90;;;;;;5031783;28;20203;-56
2022/12/27 09:06:10;;;;;;;10.03;1.57;;;4.20;99.90;;;;;;5043869;28;20249;-45
2022/12/27 09:08:37;;;;;;;7.17;1.90;;;4.20;99.90;;;;;;5029088;28;20219;-56
2022/12/27 09:11:09;;;;;;;6.23;1.93;;;4.20;99.90;;;;;;5030337;28;20354;-46
2022/12/27 09:13:37;;;;;;;3.47;1.53;;;4.20;99.90;;;;;;5030618;28;20195;-57
2022/12/27 09:16:06;;;;;;;3.73;1.63;;;4.20;99.90;;;;;;5019517;28;20207;-53
2022/12/27 09:18:33;;;;;;;5.37;2.00;;;4.30;99.90;;;;;;5029495;28;20195;-58
2022/12/27 09:21:04;;;;;;;3.63;1.80;;;4.30;99.90;;;;;;5037567;28;20202;-46
2022/12/27 09:23:31;;;;;;;6.43;1.83;;;4.30;99.90;;;;;;5019122;28;20326;-46
2022/12/27 09:25:58;;;;;;;8.00;1.80;;;4.30;99.90;;;;;;5040032;28;20245;-57
2022/12/27 09:28:25;;;;;;;10.53;1.60;;;4.20;99.90;;;;;;5021413;28;20240;-44
2022/12/27 09:30:53;;;;;;;6.63;1.60;;;4.20;99.90;;;;;;5016243;28;20218;-53
2022/12/27 09:33:20;;;;;;;8.37;2.00;;;4.30;99.90;;;;;;5032417;28;20859;-48
2022/12/27 09:35:47;;;;;;;6.53;1.73;;;4.20;99.90;;;;;;5032996;28;20231;-47
2022/12/27 09:38:13;;;;;;;4.10;1.60;;;4.30;99.90;;;;;;5025307;28;20195;-48
2022/12/27 09:40:50;;;;;;;8.00;2.10;;;4.30;99.90;;;;;;5031857;28;20303;-49
2022/12/27 09:43:18;;;;;;;8.53;2.30;;;4.40;99.90;;;;;;5021615;28;20203;-50
2022/12/27 09:45:49;;;;;;;5.13;2.07;;;4.40;99.90;;;;;;5022073;28;20254;-46
2022/12/27 09:48:25;;;;;;;9.07;2.97;;;4.40;99.90;;;;;;5012729;28;20390;-44
2022/12/27 09:50:56;;;;;;;12.27;2.10;;;4.40;99.90;;;;;;5027392;28;20208;-51
2022/12/27 09:53:33;;;;;;;9.33;2.70;;;4.50;99.90;;;;;;5028339;28;20196;-47
2022/12/27 09:56:01;;;;;;;6.40;2.27;;;4.50;99.90;;;;;;5029242;28;20684;-57
2022/12/27 09:58:41;;;;;;;6.17;1.73;;;4.60;99.90;;;;;;5037300;28;20191;-51
2022/12/27 10:01:19;;;;;;;4.63;1.70;;;4.70;99.90;;;;;;5025668;28;20211;-59
2022/12/27 10:03:47;;;;;;;6.97;2.37;;;4.70;99.90;;;;;;5013315;28;20310;-49
2022/12/27 10:06:39;;;;;;;6.70;2.00;;;4.80;99.90;;;;;;5029384;28;20202;-47
2022/12/27 10:09:25;;;;;;;5.83;2.03;;;4.90;99.90;;;;;;5032694;28;20219;-56
2022/12/27 10:11:58;;;;;;;10.03;2.00;;;5.20;99.90;;;;;;5027584;28;20231;-47
2022/12/27 10:14:38;;;;;;;5.20;1.93;;;5.30;99.90;;;;;;5034684;28;20338;-47
2022/12/27 10:17:14;;;;;;;11.03;1.87;;;5.30;99.90;;;;;;5014320;28;20215;-58
2022/12/27 10:19:48;;;;;;;3.70;1.70;;;5.20;99.90;;;;;;5032967;28;20274;-49
2022/12/27 10:22:23;;;;;;;8.97;2.27;;;5.20;99.90;;;;;;5030955;28;20195;-50
2022/12/27 10:24:54;;;;;;;3.27;1.57;;;5.20;99.90;;;;;;5039514;28;20700;-47
2022/12/27 10:27:23;;;;;;;10.50;1.80;;;5.20;99.90;;;;;;5025162;28;20199;-45
2022/12/27 10:29:52;;;;;;;10.27;1.90;;;5.20;99.90;;;;;;5035948;28;20583;-45
2022/12/27 10:32:19;;;;;;;6.53;1.57;;;5.20;99.90;;;;;;5022627;28;20278;-56
2022/12/27 10:34:52;;;;;;;4.03;1.63;;;5.20;99.90;;;;;;5022660;28;20310;-47
2022/12/27 10:37:19;;;;;;;6.53;1.83;;;5.20;99.90;;;;;;5021413;28;20674;-52
2022/12/27 10:39:46;;;;;;;6.10;1.90;;;5.20;99.90;;;;;;5034613;28;20192;-47
2022/12/27 10:42:27;;;;;;;11.00;1.80;;;5.20;99.90;;;;;;5032904;28;20269;-46
2022/12/27 10:45:31;;;;;;;5.50;1.90;;;5.10;99.90;;;;;;5031782;28;20211;-51
2022/12/27 10:48:12;;;;;;;8.03;1.63;;;5.10;99.90;;;;;;5015137;28;20212;-50
2022/12/27 10:50:45;;;;;;;9.83;1.87;;;5.10;99.90;;;;;;5021051;28;20218;-52
2022/12/27 10:53:30;;;;;;;9.00;1.97;;;5.10;99.90;;;;;;5030074;28;20200;-49
2022/12/27 10:56:14;;;;;;;8.00;1.60;;;5.20;99.90;;;;;;5030520;28;20214;-46
2022/12/27 10:58:43;;;;;;;6.67;1.90;;;5.20;99.90;;;;;;5017312;28;20222;-48
2022/12/27 11:01:18;;;;;;;4.23;1.37;;;5.20;99.90;;;;;;5031841;28;20210;-49
2022/12/27 11:03:45;;;;;;;7.37;1.80;;;5.20;99.90;;;;;;5010419;28;20302;-48
2022/12/27 11:06:24;;;;;;;2.23;1.40;;;5.30;99.90;;;;;;5024562;28;20199;-55
2022/12/27 11:08:53;;;;;;;6.47;1.33;;;5.30;99.90;;;;;;5030673;28;20585;-49
2022/12/27 11:11:23;;;;;;;7.27;1.30;;;5.40;99.90;;;;;;5030389;28;20206;-58
2022/12/27 11:13:50;;;;;;;10.03;1.23;;;5.40;99.90;;;;;;5035264;28;20775;-58
2022/12/27 11:16:28;;;;;;;8.20;1.90;;;5.50;99.90;;;;;;5028232;28;20208;-50
2022/12/27 11:19:00;;;;;;;7.33;1.83;;;5.50;99.90;;;;;;5008035;28;20715;-56
2022/12/27 11:21:28;;;;;;;8.40;1.40;;;5.60;99.90;;;;;;5026348;28;20210;-44
2022/12/27 11:23:58;;;;;;;7.50;1.53;;;5.60;99.90;;;;;;5021964;28;20592;-57
2022/12/27 11:26:28;;;;;;;5.23;1.77;;;5.70;99.90;;;;;;5030032;28;20298;-47
2022/12/27 11:28:57;;;;;;;10.60;1.80;;;5.80;99.90;;;;;;5036804;28;20211;-58
2022/12/27 11:31:37;;;;;;;6.10;1.17;;;5.90;99.90;;;;;;5025031;28;20254;-48
2022/12/27 11:34:30;;;;;;;5.33;1.50;;;6.00;99.90;;;;;;5016853;28;20245;-48
2022/12/27 11:37:05;;;;;;;8.30;1.73;;;5.90;99.90;;;;;;5027194;28;20261;-50
2022/12/27 11:39:55;;;;;;;6.10;1.83;;;5.90;99.90;;;;;;5031526;28;20219;-56
2022/12/27 11:42:31;;;;;;;3.17;1.40;;;5.80;99.90;;;;;;5033633;28;20199;-47
2022/12/27 11:45:10;;;;;;;3.80;1.80;;;5.80;99.90;;;;;;5031328;28;20222;-59
2022/12/27 11:47:47;;;;;;;6.53;1.47;;;5.80;99.90;;;;;;5038812;28;20205;-47
2022/12/27 11:50:29;;;;;;;7.80;2.20;;;5.80;99.90;;;;;;5018667;28;20246;-51
2022/12/27 11:53:14;;;;;;;6.33;1.27;;;5.70;99.90;;;;;;5023425;28;20208;-56
2022/12/27 11:56:12;;;;;;;7.87;1.90;;;5.80;99.90;;;;;;5032191;28;20725;-58
2022/12/27 11:58:55;;;;;;;8.80;2.07;;;5.80;99.90;;;;;;5027455;28;20272;-53
2022/12/27 12:01:46;;;;;;;6.03;1.17;;;5.80;99.90;;;;;;5035956;28;20291;-44
2022/12/27 12:04:42;;;;;;;5.07;1.30;;;5.80;99.90;;;;;;5036042;28;20235;-48
2022/12/27 12:07:26;;;;;;;3.83;1.17;;;5.90;99.90;;;;;;5016240;28;20218;-47
2022/12/27 12:10:09;;;;;;;6.73;1.57;;;6.00;99.90;;;;;;5025836;28;20766;-56
2022/12/27 12:13:11;;;;;;;6.13;1.87;;;6.10;99.90;;;;;;5039835;28;20214;-47
2022/12/27 12:16:00;;;;;;;4.30;1.47;;;6.20;99.90;;;;;;5015257;28;20234;-47
2022/12/27 12:18:43;;;;;;;8.07;1.30;;;6.20;99.90;;;;;;5040125;28;20606;-51
2022/12/27 12:21:33;;;;;;;7.77;2.20;;;6.30;99.90;;;;;;5021277;28;20207;-51
2022/12/27 12:24:27;;;;;;;3.73;1.30;;;6.30;99.90;;;;;;5028261;28;20230;-48
2022/12/27 12:27:10;;;;;;;8.43;1.93;;;6.30;99.90;;;;;;5030060;28;20290;-56
2022/12/27 12:30:05;;;;;;;5.93;1.40;;;6.30;99.90;;;;;;5027196;28;20232;-50
2022/12/27 12:32:43;;;;;;;3.93;1.47;;;6.30;99.90;;;;;;5020463;28;20745;-44
2022/12/27 12:35:31;;;;;;;10.33;1.80;;;6.30;99.90;;;;;;5043720;28;20897;-44
2022/12/27 12:38:10;;;;;;;7.07;1.40;;;6.30;99.90;;;;;;5009669;28;20212;-59
2022/12/27 12:41:03;;;;;;;4.90;1.60;;;6.20;99.90;;;;;;5027203;28;20203;-51
2022/12/27 12:43:51;;;;;;;7.23;1.70;;;6.20;99.90;;;;;;5026959;28;20200;-43
2022/12/27 12:46:30;;;;;;;3.23;1.23;;;6.20;99.90;;;;;;5038564;28;20203;-51
2022/12/27 12:49:12;;;;;;;6.00;1.43;;;6.20;99.90;;;;;;5023801;28;20226;-57
2022/12/27 12:52:09;;;;;;;5.40;1.87;;;6.20;99.90;;;;;;5016455;28;20207;-56
2022/12/27 12:54:54;;;;;;;9.37;1.43;;;6.10;99.90;;;;;;5026211;28;20253;-46
2022/12/27 12:57:32;;;;;;;5.90;2.13;;;6.10;99.90;;;;;;5030092;28;20187;-45
2022/12/27 13:00:26;;;;;;;5.90;1.50;;;6.10;99.90;;;;;;5023099;28;20192;-57
2022/12/27 13:03:30;;;;;;;9.23;1.77;;;6.10;99.90;;;;;;5038469;28;20210;-55
2022/12/27 13:06:04;;;;;;;9.03;1.73;;;6.00;99.90;;;;;;5042495;28;20211;-58
2022/12/27 13:08:36;;;;;;;3.67;1.60;;;6.00;99.90;;;;;;5020504;28;20705;-47
2022/12/27 13:11:25;;;;;;;7.87;1.97;;;6.00;99.90;;;;;;5028084;28;20940;-45
2022/12/27 13:14:10;;;;;;;8.57;2.30;;;6.00;99.90;;;;;;5023010;28;20227;-58
2022/12/27 13:16:49;;;;;;;10.77;1.87;;;5.90;99.90;;;;;;5039705;28;20268;-44
2022/12/27 13:19:34;;;;;;;4.60;1.90;;;5.90;99.90;;;;;;5044177;28;21018;-47
2022/12/27 13:22:11;;;;;;;7.47;2.40;;;5.90;99.90;;;;;;5028573;28;20215;-46
2022/12/27 13:24:54;;;;;;;8.50;2.10;;;5.90;99.90;;;;;;5019458;28;20211;-48
2022/12/27 13:27:30;;;;;;;7.93;2.30;;;5.90;99.90;;;;;;5033901;28;20206;-55
2022/12/27 13:30:05;;;;;;;11.13;1.67;;;5.90;99.90;;;;;;5041233;28;20225;-44
2022/12/27 13:32:46;;;;;;;8.07;1.90;;;5.90;99.90;;;;;;5026819;28;20255;-44
2022/12/27 13:35:28;;;;;;;6.13;2.13;;;5.90;99.90;;;;;;5039477;28;20965;-50
2022/12/27 13:38:06;;;;;;;5.27;2.40;;;5.80;99.90;;;;;;5027793;28;20214;-58
2022/12/27 13:40:54;;;;;;;9.30;1.60;;;5.80;99.90;;;;;;5038157;28;20188;-50
2022/12/27 13:43:45;;;;;;;4.90;1.40;;;5.80;99.90;;;;;;5027447;28;20195;-47
2022/12/27 13:46:29;;;;;;;7.57;2.10;;;5.80;99.90;;;;;;5021363;28;20945;-51
2022/12/27 13:49:07;;;;;;;8.87;2.13;;;5.70;99.90;;;;;;5040173;28;20195;-56
2022/12/27 13:51:45;;;;;;;12.13;2.43;;;5.70;99.90;;;;;;5035035;28;20203;-45
2022/12/27 13:54:44;;;;;;;6.53;1.90;;;5.70;99.90;;;;;;5011874;28;20349;-45
2022/12/27 13:57:25;;;;;;;7.10;1.93;;;5.70;99.90;;;;;;5015208;28;20212;-51
2022/12/27 14:00:16;;;;;;;5.80;2.23;;;5.70;99.90;;;;;;5037031;28;20206;-57
2022/12/27 14:03:12;;;;;;;5.83;1.70;;;5.70;99.90;;;;;;5037260;28;20191;-47
2022/12/27 14:06:21;;;;;;;6.17;1.50;;;5.60;99.90;;;;;;5039539;28;20219;-46
2022/12/27 14:09:10;;;;;;;8.73;2.00;;;5.60;99.90;;;;;;5032492;28;20195;-60
2022/12/27 14:11:48;;;;;;;4.77;1.43;;;5.60;99.90;;;;;;5035773;28;20203;-44
2022/12/27 14:14:17;;;;;;;4.83;2.03;;;5.60;99.90;;;;;;5037004;28;20355;-55
2022/12/27 14:17:00;;;;;;;8.00;2.00;;;5.60;99.90;;;;;;5043081;28;20210;-44
2022/12/27 14:19:46;;;;;;;8.10;1.50;;;5.60;99.90;;;;;;5035122;28;20210;-45
2022/12/27 14:22:32;;;;;;;4.93;2.13;;;5.50;99.90;;;;;;5022261;28;20202;-45
2022/12/27 14:25:50;;;;;;;5.13;1.70;;;5.50;99.90;;;;;;5023659;28;20220;-58
2022/12/27 14:29:07;;;;;;;5.43;1.20;;;5.50;99.90;;;;;;4942687;28;20297;-46
2022/12/27 14:32:04;;;;;;;6.53;1.87;;;5.40;99.90;;;;;;5032907;28;20202;-48
2022/12/27 14:35:07;;;;;;;8.47;1.80;;;5.40;99.90;;;;;;5001994;28;20251;-48
2022/12/27 14:37:55;;;;;;;12.07;2.67;;;5.40;99.90;;;;;;5026225;28;20203;-52
2022/12/27 14:40:56;;;;;;;7.10;2.37;;;5.30;99.90;;;;;;5038568;28;20943;-48
2022/12/27 14:44:06;;;;;;;7.47;2.00;;;5.30;99.90;;;;;;5028503;28;20669;-59
2022/12/27 14:47:00;;;;;;;9.07;2.63;;;5.20;99.90;;;;;;5028131;28;20196;-49
2022/12/27 14:50:15;;;;;;;6.67;1.83;;;5.20;99.90;;;;;;5011607;28;20208;-57
2022/12/27 14:53:16;;;;;;;12.40;3.50;;;5.20;99.90;;;;;;5026083;28;21337;-45
2022/12/27 14:55:53;;;;;;;11.97;2.30;;;5.10;99.90;;;;;;5021341;28;20219;-49
2022/12/27 14:58:35;;;;;;;13.47;3.50;;;5.10;99.90;;;;;;5016074;28;20211;-56
2022/12/27 15:01:15;;;;;;;7.63;2.93;;;5.00;99.90;;;;;;5031580;28;20200;-47
2022/12/27 15:04:01;;;;;;;10.37;3.20;;;5.00;99.90;;;;;;5030983;28;20201;-50
2022/12/27 15:06:56;;;;;;;17.47;4.90;;;5.00;99.90;;;;;;5032361;28;20191;-57
2022/12/27 15:09:33;;;;;;;13.53;3.97;;;5.00;99.90;;;;;;5031958;28;20199;-56